createdAt,value
2018-04-15T00:02:17.112Z,9.60
2018-04-15T00:04:43.008Z,9.62
2018-04-15T00:07:09.009Z,9.65
2018-04-15T00:09:34.930Z,9.66
2018-04-15T00:12:01.012Z,9.57
2018-04-15T00:14:26.928Z,9.49
2018-04-15T00:16:52.827Z,9.40
2018-04-15T00:19:18.813Z,9.34
2018-04-15T00:21:44.804Z,9.30
2018-04-15T00:24:10.688Z,9.27
2018-04-15T00:26:36.560Z,9.27
2018-04-15T00:29:02.642Z,9.28
2018-04-15T00:31:28.610Z,9.26
2018-04-15T00:33:54.568Z,9.25
2018-04-15T00:36:20.522Z,9.18
2018-04-15T00:38:46.376Z,9.08
2018-04-15T00:41:12.272Z,9.02
2018-04-15T00:43:38.260Z,8.99
2018-04-15T00:46:04.221Z,9.00
2018-04-15T00:48:30.101Z,8.99
2018-04-15T00:50:56.044Z,8.94
2018-04-15T00:53:21.977Z,8.91
2018-04-15T00:55:47.997Z,8.91
2018-04-15T00:58:13.965Z,8.88
2018-04-15T01:00:39.831Z,8.80
2018-04-15T01:03:05.727Z,8.80
2018-04-15T01:05:31.638Z,8.78
2018-04-15T01:07:57.615Z,8.76
2018-04-15T01:10:23.553Z,8.76
2018-04-15T01:12:49.923Z,8.74
2018-04-15T01:15:15.848Z,8.72
2018-04-15T01:17:41.760Z,8.75
2018-04-15T01:20:07.780Z,8.81
2018-04-15T01:22:33.735Z,8.83
2018-04-15T01:24:59.591Z,8.84
2018-04-15T01:27:25.662Z,8.89
2018-04-15T01:29:51.625Z,8.88
2018-04-15T01:32:17.611Z,8.85
2018-04-15T01:34:43.579Z,8.82
2018-04-15T01:37:09.442Z,8.81
2018-04-15T01:39:35.334Z,8.83
2018-04-15T01:42:01.281Z,8.88
2018-04-15T01:44:27.232Z,8.92
2018-04-15T01:46:53.151Z,8.90
2018-04-15T01:49:19.094Z,8.90
2018-04-15T01:51:44.989Z,8.95
2018-04-15T01:54:10.866Z,8.99
2018-04-15T01:56:36.865Z,9.00
2018-04-15T01:59:02.830Z,9.03
2018-04-15T02:01:28.701Z,9.05
2018-04-15T02:03:54.648Z,9.06
2018-04-15T02:06:20.516Z,9.11
2018-04-15T02:08:46.467Z,9.11
2018-04-15T02:11:12.829Z,9.14
2018-04-15T02:13:38.704Z,9.16
2018-04-15T02:16:05.268Z,9.19
2018-04-15T02:18:31.211Z,9.20
2018-04-15T02:20:57.191Z,9.22
2018-04-15T02:23:23.106Z,9.24
2018-04-15T02:25:49.016Z,9.27
2018-04-15T02:28:14.885Z,9.26
2018-04-15T02:30:40.823Z,9.28
2018-04-15T02:33:06.857Z,9.28
2018-04-15T02:35:32.788Z,9.46
2018-04-15T02:37:58.659Z,9.50
2018-04-15T02:40:24.574Z,9.55
2018-04-15T02:42:50.481Z,9.56
2018-04-15T02:45:16.456Z,9.59
2018-04-15T02:47:42.429Z,9.57
2018-04-15T02:50:08.338Z,9.57
2018-04-15T02:52:34.292Z,9.50
2018-04-15T02:55:00.286Z,9.56
2018-04-15T02:57:26.248Z,9.64
2018-04-15T02:59:52.216Z,9.64
2018-04-15T03:02:18.132Z,9.64
2018-04-15T03:04:44.069Z,9.66
2018-04-15T03:07:09.964Z,9.63
2018-04-15T03:09:36.302Z,9.69
2018-04-15T03:12:02.245Z,9.61
2018-04-15T03:14:28.139Z,9.61
2018-04-15T03:16:54.083Z,9.65
2018-04-15T03:19:19.964Z,9.73
2018-04-15T03:21:45.936Z,9.75
2018-04-15T03:24:11.902Z,9.73
2018-04-15T03:26:37.780Z,9.72
2018-04-15T03:29:03.699Z,9.72
2018-04-15T03:31:29.628Z,9.71
2018-04-15T03:33:55.964Z,9.72
2018-04-15T03:36:21.891Z,9.74
2018-04-15T03:38:47.804Z,9.74
2018-04-15T03:41:13.710Z,9.71
2018-04-15T03:43:39.587Z,9.70
2018-04-15T03:46:05.600Z,9.67
2018-04-15T03:48:31.531Z,9.66
2018-04-15T03:50:58.451Z,9.63
2018-04-15T03:53:24.363Z,9.63
2018-04-15T03:55:50.232Z,9.57
2018-04-15T03:58:16.179Z,9.55
2018-04-15T04:00:42.233Z,9.42
2018-04-15T04:03:08.116Z,9.34
2018-04-15T04:05:33.984Z,9.32
2018-04-15T04:08:00.510Z,9.32
2018-04-15T04:10:26.483Z,9.28
2018-04-15T04:12:52.443Z,9.21
2018-04-15T04:15:19.606Z,9.16
2018-04-15T04:17:57.747Z,9.18
2018-04-15T04:20:36.762Z,9.14
2018-04-15T04:23:15.752Z,9.20
2018-04-15T04:25:53.855Z,9.09
2018-04-15T04:28:19.719Z,9.20
2018-04-15T04:30:45.673Z,9.19
2018-04-15T04:33:11.565Z,9.18
2018-04-15T04:35:37.499Z,9.24
2018-04-15T04:38:03.421Z,9.24
2018-04-15T04:40:29.343Z,9.27
2018-04-15T04:42:55.328Z,9.17
2018-04-15T04:45:21.202Z,9.24
2018-04-15T04:47:47.466Z,9.26
2018-04-15T04:50:13.319Z,9.28
2018-04-15T04:52:39.195Z,9.34
2018-04-15T04:55:06.224Z,9.33
2018-04-15T04:57:32.101Z,9.39
2018-04-15T04:59:58.073Z,9.46
2018-04-15T05:02:23.990Z,9.56
2018-04-15T05:04:49.885Z,9.63
2018-04-15T05:07:15.859Z,9.68
2018-04-15T05:09:41.804Z,9.74
2018-04-15T05:12:07.723Z,9.82
2018-04-15T05:14:33.639Z,9.88
2018-04-15T05:16:59.570Z,9.92
2018-04-15T05:19:25.579Z,9.99
2018-04-15T05:21:51.508Z,9.94
2018-04-15T05:24:17.504Z,9.95
2018-04-15T05:26:43.420Z,9.98
2018-04-15T05:29:09.278Z,9.95
2018-04-15T05:31:35.359Z,10.07
2018-04-15T05:34:01.256Z,10.16
2018-04-15T05:36:27.243Z,10.13
2018-04-15T05:38:53.192Z,10.23
2018-04-15T05:41:19.109Z,10.27
2018-04-15T05:43:45.084Z,10.37
2018-04-15T05:46:11.352Z,10.41
2018-04-15T05:48:37.325Z,10.47
2018-04-15T05:51:03.216Z,10.42
2018-04-15T05:53:29.192Z,10.38
2018-04-15T05:55:55.143Z,10.50
2018-04-15T05:58:22.980Z,10.58
2018-04-15T06:00:48.968Z,10.66
2018-04-15T06:03:14.838Z,10.85
2018-04-15T06:05:40.735Z,10.97
2018-04-15T06:08:06.832Z,11.20
2018-04-15T06:10:32.704Z,11.26
2018-04-15T06:12:58.731Z,11.19
2018-04-15T06:15:24.952Z,11.10
2018-04-15T06:17:50.917Z,11.02
2018-04-15T06:20:16.871Z,11.05
2018-04-15T06:22:42.781Z,11.16
2018-04-15T06:25:08.701Z,11.13
2018-04-15T06:27:34.571Z,11.21
2018-04-15T06:30:00.785Z,11.30
2018-04-15T06:32:26.815Z,11.34
2018-04-15T06:34:52.708Z,11.50
2018-04-15T06:37:18.690Z,11.52
2018-04-15T06:39:44.669Z,11.59
2018-04-15T06:42:10.588Z,11.57
2018-04-15T06:44:36.584Z,11.65
2018-04-15T06:47:02.472Z,11.73
2018-04-15T06:49:28.564Z,11.88
2018-04-15T06:51:54.512Z,12.09
2018-04-15T06:54:20.379Z,12.27
2018-04-15T06:56:46.332Z,12.52
2018-04-15T06:59:12.249Z,12.61
2018-04-15T07:01:38.243Z,12.64
2018-04-15T07:04:04.124Z,12.71
2018-04-15T07:06:30.128Z,12.82
2018-04-15T07:08:56.376Z,12.93
2018-04-15T07:11:22.288Z,12.85
2018-04-15T07:13:48.395Z,12.97
2018-04-15T07:16:14.279Z,13.11
2018-04-15T07:18:40.175Z,13.06
2018-04-15T07:21:06.193Z,13.14
2018-04-15T07:23:32.063Z,13.03
2018-04-15T07:25:58.003Z,13.15
2018-04-15T07:28:23.911Z,13.30
2018-04-15T07:30:49.775Z,13.43
2018-04-15T07:33:15.730Z,13.81
2018-04-15T07:35:41.777Z,13.97
2018-04-15T07:38:07.845Z,14.24
2018-04-15T07:40:33.711Z,14.39
2018-04-15T07:42:59.634Z,14.55
2018-04-15T07:45:25.595Z,14.51
2018-04-15T07:47:51.467Z,14.64
2018-04-15T07:50:17.523Z,14.64
2018-04-15T07:52:43.428Z,14.72
2018-04-15T07:55:09.355Z,14.68
2018-04-15T07:57:36.202Z,15.07
2018-04-15T08:00:02.170Z,15.14
2018-04-15T08:02:28.152Z,15.02
2018-04-15T08:04:54.104Z,15.10
2018-04-15T08:07:21.136Z,15.29
2018-04-15T08:09:47.095Z,15.05
2018-04-15T08:12:13.035Z,15.10
2018-04-15T08:14:38.964Z,15.20
2018-04-15T08:17:04.840Z,15.52
2018-04-15T08:19:30.788Z,15.48
2018-04-15T08:21:56.785Z,15.34
2018-04-15T08:24:22.712Z,15.73
2018-04-15T08:26:48.668Z,15.72
2018-04-15T08:29:14.579Z,15.62
2018-04-15T08:31:40.481Z,15.59
2018-04-15T08:34:06.502Z,15.64
2018-04-15T08:36:32.917Z,15.98
2018-04-15T08:38:58.856Z,16.40
2018-04-15T08:41:24.814Z,16.92
2018-04-15T08:43:50.691Z,17.18
2018-04-15T08:46:16.704Z,17.16
2018-04-15T08:48:42.627Z,17.66
2018-04-15T08:51:08.547Z,17.95
2018-04-15T08:53:34.423Z,17.94
2018-04-15T08:56:00.315Z,18.08
2018-04-15T08:58:26.271Z,18.35
2018-04-15T09:00:52.160Z,18.61
2018-04-15T09:03:18.175Z,18.66
2018-04-15T09:05:44.059Z,19.03
2018-04-15T09:08:09.919Z,19.14
2018-04-15T09:10:35.930Z,19.10
2018-04-15T09:13:01.835Z,19.07
2018-04-15T09:15:27.776Z,19.36
2018-04-15T09:17:53.718Z,19.42
2018-04-15T09:20:19.616Z,19.26
2018-04-15T09:22:45.600Z,19.48
2018-04-15T09:25:11.508Z,19.78
2018-04-15T09:27:37.436Z,19.71
2018-04-15T09:30:03.354Z,19.77
2018-04-15T09:32:29.247Z,19.79
2018-04-15T09:34:55.211Z,19.91
2018-04-15T09:37:21.089Z,20.22
2018-04-15T09:39:48.081Z,20.11
2018-04-15T09:42:14.970Z,20.09
2018-04-15T09:44:40.887Z,20.34
2018-04-15T09:47:06.934Z,20.84
2018-04-15T09:49:32.812Z,20.54
2018-04-15T09:51:58.749Z,20.61
2018-04-15T09:54:24.665Z,20.93
2018-04-15T09:56:50.541Z,21.32
2018-04-15T09:59:16.592Z,20.96
2018-04-15T10:01:42.461Z,21.04
2018-04-15T10:04:08.410Z,21.10
2018-04-15T10:06:34.271Z,21.55
2018-04-15T10:09:00.174Z,21.57
2018-04-15T10:11:26.141Z,21.23
2018-04-15T10:13:52.019Z,21.58
2018-04-15T10:16:17.990Z,21.66
2018-04-15T10:18:43.893Z,21.63
2018-04-15T10:21:09.759Z,21.51
2018-04-15T10:23:35.791Z,21.78
2018-04-15T10:26:01.717Z,21.85
2018-04-15T10:28:27.635Z,22.39
2018-04-15T10:30:53.681Z,22.60
2018-04-15T10:33:19.561Z,22.42
2018-04-15T10:35:45.552Z,22.23
2018-04-15T10:38:11.475Z,22.46
2018-04-15T10:40:37.405Z,22.07
2018-04-15T10:43:03.330Z,22.52
2018-04-15T10:45:29.239Z,23.13
2018-04-15T10:47:55.202Z,23.26
2018-04-15T10:50:21.072Z,23.15
2018-04-15T10:52:47.048Z,23.22
2018-04-15T10:55:12.924Z,23.15
2018-04-15T10:57:38.804Z,23.45
2018-04-15T11:00:04.801Z,23.60
2018-04-15T11:02:30.667Z,23.61
2018-04-15T11:04:56.587Z,24.23
2018-04-15T11:07:23.268Z,24.30
2018-04-15T11:09:49.140Z,23.91
2018-04-15T11:12:15.125Z,24.64
2018-04-15T11:14:41.044Z,23.92
2018-04-15T11:17:08.105Z,24.63
2018-04-15T11:19:33.996Z,24.67
2018-04-15T11:21:59.962Z,24.47
2018-04-15T11:24:26.406Z,24.09
2018-04-15T11:26:52.262Z,24.33
2018-04-15T11:29:18.241Z,24.43
2018-04-15T11:31:44.588Z,24.34
2018-04-15T11:34:10.520Z,23.71
2018-04-15T11:36:36.568Z,23.87
2018-04-15T11:39:02.461Z,23.19
2018-04-15T11:41:28.387Z,23.45
2018-04-15T11:43:54.330Z,23.28
2018-04-15T11:46:20.291Z,23.50
2018-04-15T11:48:46.260Z,22.85
2018-04-15T11:51:12.184Z,22.99
2018-04-15T11:53:38.131Z,22.75
2018-04-15T11:56:04.015Z,22.66
2018-04-15T11:58:30.017Z,22.99
2018-04-15T12:00:56.060Z,23.13
2018-04-15T12:03:21.953Z,23.38
2018-04-15T12:05:47.943Z,23.14
2018-04-15T12:08:13.812Z,22.58
2018-04-15T12:10:39.819Z,22.94
2018-04-15T12:13:06.019Z,23.21
2018-04-15T12:15:31.908Z,22.90
2018-04-15T12:17:57.855Z,22.68
2018-04-15T12:20:23.831Z,22.31
2018-04-15T12:22:49.724Z,22.49
2018-04-15T12:25:15.733Z,22.57
2018-04-15T12:27:41.662Z,22.24
2018-04-15T12:30:08.607Z,21.82
2018-04-15T12:32:34.495Z,21.85
2018-04-15T12:35:00.529Z,22.19
2018-04-15T12:37:26.491Z,22.50
2018-04-15T12:39:52.380Z,22.07
2018-04-15T12:42:18.381Z,21.97
2018-04-15T12:44:44.236Z,21.90
2018-04-15T12:47:10.111Z,22.07
2018-04-15T12:49:36.200Z,22.16
2018-04-15T12:52:02.142Z,22.20
2018-04-15T12:54:28.075Z,22.14
2018-04-15T12:56:54.008Z,22.35
2018-04-15T12:59:19.897Z,22.47
2018-04-15T13:01:45.868Z,22.32
2018-04-15T13:04:11.800Z,22.89
2018-04-15T13:06:38.960Z,22.42
2018-04-15T13:09:04.851Z,22.18
2018-04-15T13:11:30.824Z,22.55
2018-04-15T13:13:56.791Z,22.35
2018-04-15T13:16:22.690Z,21.97
2018-04-15T13:18:48.820Z,22.59
2018-04-15T13:21:14.698Z,22.90
2018-04-15T13:23:40.595Z,22.69
2018-04-15T13:26:06.646Z,22.76
2018-04-15T13:28:32.609Z,22.51
2018-04-15T13:30:58.561Z,22.40
2018-04-15T13:33:24.491Z,22.18
2018-04-15T13:35:51.387Z,22.47
2018-04-15T13:38:17.369Z,22.48
2018-04-15T13:40:43.302Z,22.93
2018-04-15T13:43:09.672Z,22.96
2018-04-15T13:45:35.529Z,22.83
2018-04-15T13:48:01.464Z,22.44
2018-04-15T13:50:27.462Z,22.29
2018-04-15T13:52:53.337Z,22.43
2018-04-15T13:55:19.321Z,23.01
2018-04-15T13:57:45.196Z,23.05
2018-04-15T14:00:11.096Z,22.62
2018-04-15T14:02:37.120Z,22.67
2018-04-15T14:05:02.976Z,22.41
2018-04-15T14:07:28.906Z,22.27
2018-04-15T14:09:54.811Z,22.70
2018-04-15T14:12:20.681Z,22.43
2018-04-15T14:14:46.688Z,22.46
2018-04-15T14:17:12.614Z,22.18
2018-04-15T14:19:38.571Z,22.38
2018-04-15T14:22:04.452Z,22.10
2018-04-15T14:24:30.376Z,22.19
2018-04-15T14:26:56.344Z,22.18
2018-04-15T14:29:22.229Z,22.00
2018-04-15T14:31:48.205Z,22.08
2018-04-15T14:34:14.103Z,22.36
2018-04-15T14:36:39.963Z,22.16
2018-04-15T14:39:06.833Z,21.99
2018-04-15T14:41:32.713Z,22.36
2018-04-15T14:43:58.627Z,22.22
2018-04-15T14:46:24.579Z,22.31
2018-04-15T14:48:50.431Z,22.69
2018-04-15T14:51:16.371Z,22.68
2018-04-15T14:53:42.322Z,22.24
2018-04-15T14:56:08.244Z,22.08
2018-04-15T14:58:34.137Z,21.93
2018-04-15T15:01:00.051Z,21.83
2018-04-15T15:03:26.036Z,21.93
2018-04-15T15:05:51.983Z,22.03
2018-04-15T15:08:17.945Z,21.79
2018-04-15T15:10:43.907Z,21.72
2018-04-15T15:13:09.832Z,21.88
2018-04-15T15:15:35.832Z,22.15
2018-04-15T15:18:01.688Z,21.99
2018-04-15T15:20:27.716Z,22.21
2018-04-15T15:22:53.807Z,21.76
2018-04-15T15:25:19.720Z,22.03
2018-04-15T15:27:47.887Z,21.94
2018-04-15T15:30:14.042Z,21.91
2018-04-15T15:32:40.049Z,22.06
2018-04-15T15:35:05.911Z,22.37
2018-04-15T15:37:31.836Z,22.10
2018-04-15T15:39:58.026Z,22.40
2018-04-15T15:42:23.954Z,22.20
2018-04-15T15:44:51.029Z,22.48
2018-04-15T15:47:16.916Z,22.48
2018-04-15T15:49:42.814Z,22.17
2018-04-15T15:52:08.841Z,21.99
2018-04-15T15:54:34.729Z,22.10
2018-04-15T15:57:00.666Z,22.11
2018-04-15T15:59:26.600Z,22.02
2018-04-15T16:01:52.483Z,22.07
2018-04-15T16:04:18.441Z,22.37
2018-04-15T16:06:44.369Z,22.45
2018-04-15T16:09:10.324Z,22.16
2018-04-15T16:11:36.179Z,22.39
2018-04-15T16:14:02.138Z,22.05
2018-04-15T16:16:28.100Z,22.22
2018-04-15T16:18:53.980Z,22.32
2018-04-15T16:21:19.960Z,22.35
2018-04-15T16:23:45.894Z,22.35
2018-04-15T16:26:11.761Z,22.10
2018-04-15T16:28:37.764Z,22.20
2018-04-15T16:31:03.648Z,22.27
2018-04-15T16:33:29.567Z,22.26
2018-04-15T16:35:55.497Z,22.27
2018-04-15T16:38:22.594Z,22.34
2018-04-15T16:40:48.685Z,22.43
2018-04-15T16:43:14.631Z,22.33
2018-04-15T16:45:40.599Z,22.27
2018-04-15T16:48:06.489Z,22.17
2018-04-15T16:50:32.797Z,22.05
2018-04-15T16:52:58.748Z,21.98
2018-04-15T16:55:24.612Z,21.94
2018-04-15T16:57:50.596Z,21.96
2018-04-15T17:00:16.487Z,21.92
2018-04-15T17:02:42.364Z,21.81
2018-04-15T17:05:08.715Z,21.86
2018-04-15T17:07:34.584Z,21.61
2018-04-15T17:10:00.509Z,21.44
2018-04-15T17:12:26.438Z,21.31
2018-04-15T17:14:52.337Z,21.19
2018-04-15T17:17:18.293Z,21.05
2018-04-15T17:19:44.214Z,20.89
2018-04-15T17:22:10.222Z,20.75
2018-04-15T17:24:36.082Z,20.56
2018-04-15T17:27:01.988Z,20.37
2018-04-15T17:29:27.974Z,20.14
2018-04-15T17:31:54.015Z,19.94
2018-04-15T17:34:21.299Z,19.70
2018-04-15T17:36:47.256Z,19.48
2018-04-15T17:39:13.136Z,19.28
2018-04-15T17:41:39.308Z,19.10
2018-04-15T17:44:05.176Z,18.93
2018-04-15T17:46:31.132Z,18.80
2018-04-15T17:48:57.057Z,18.66
2018-04-15T17:51:22.925Z,18.51
2018-04-15T17:53:48.868Z,18.37
2018-04-15T17:56:14.785Z,18.21
2018-04-15T17:58:40.711Z,18.08
2018-04-15T18:01:06.609Z,17.98
2018-04-15T18:03:32.563Z,17.83
2018-04-15T18:05:58.531Z,17.68
2018-04-15T18:08:24.402Z,17.55
2018-04-15T18:10:50.538Z,17.44
2018-04-15T18:13:16.454Z,17.34
2018-04-15T18:15:42.316Z,17.22
2018-04-15T18:18:08.325Z,17.10
2018-04-15T18:20:34.243Z,16.98
2018-04-15T18:23:00.192Z,16.87
2018-04-15T18:25:26.174Z,16.81
2018-04-15T18:27:52.039Z,16.71
2018-04-15T18:30:18.019Z,16.63
2018-04-15T18:32:43.924Z,16.54
2018-04-15T18:35:09.893Z,16.46
2018-04-15T18:37:35.762Z,16.40
2018-04-15T18:40:01.677Z,16.32
2018-04-15T18:42:27.645Z,16.27
2018-04-15T18:44:53.606Z,16.20
2018-04-15T18:47:19.588Z,16.16
2018-04-15T18:49:45.473Z,16.10
2018-04-15T18:52:11.336Z,16.02
2018-04-15T18:54:37.341Z,15.92
2018-04-15T18:57:03.242Z,15.82
2018-04-15T18:59:29.180Z,15.76
2018-04-15T19:01:55.104Z,15.68
2018-04-15T19:04:20.972Z,15.58
2018-04-15T19:06:46.951Z,15.51
2018-04-15T19:09:12.863Z,15.50
2018-04-15T19:11:38.804Z,15.45
2018-04-15T19:14:04.695Z,15.38
2018-04-15T19:16:30.672Z,15.35
2018-04-15T19:18:57.171Z,15.31
2018-04-15T19:21:23.249Z,15.29
2018-04-15T19:23:49.204Z,15.27
2018-04-15T19:26:15.094Z,15.22
2018-04-15T19:28:40.947Z,15.18
2018-04-15T19:31:07.047Z,15.14
2018-04-15T19:33:33.236Z,15.09
2018-04-15T19:35:59.145Z,15.05
2018-04-15T19:38:25.064Z,14.99
2018-04-15T19:40:50.934Z,14.94
2018-04-15T19:43:16.933Z,14.90
2018-04-15T19:45:42.865Z,14.87
2018-04-15T19:48:08.824Z,14.84
2018-04-15T19:50:34.721Z,14.80
2018-04-15T19:53:00.871Z,14.76
2018-04-15T19:55:27.670Z,14.70
2018-04-15T19:57:53.581Z,14.64
2018-04-15T20:00:19.572Z,14.61
2018-04-15T20:02:45.476Z,14.60
2018-04-15T20:05:11.364Z,14.55
2018-04-15T20:07:37.366Z,14.52
2018-04-15T20:10:03.297Z,14.53
2018-04-15T20:12:29.263Z,14.49
2018-04-15T20:14:55.409Z,14.43
2018-04-15T20:17:21.496Z,14.39
2018-04-15T20:19:47.553Z,14.34
2018-04-15T20:22:13.484Z,14.31
2018-04-15T20:24:43.864Z,14.25
2018-04-15T20:27:09.744Z,14.19
2018-04-15T20:29:35.638Z,14.14
2018-04-15T20:32:01.588Z,14.10
2018-04-15T20:34:27.494Z,14.08
2018-04-15T20:36:53.478Z,13.99
2018-04-15T20:39:19.388Z,13.99
2018-04-15T20:41:45.287Z,13.94
2018-04-15T20:44:11.352Z,13.88
2018-04-15T20:46:37.235Z,13.89
2018-04-15T20:49:03.189Z,13.87
2018-04-15T20:51:29.188Z,13.82
2018-04-15T20:53:55.059Z,13.79
2018-04-15T20:56:21.867Z,13.80
2018-04-15T20:58:47.790Z,13.78
2018-04-15T21:01:13.737Z,13.95
2018-04-15T21:03:39.624Z,13.85
2018-04-15T21:06:06.971Z,13.80
2018-04-15T21:08:32.923Z,13.75
2018-04-15T21:10:58.825Z,13.71
2018-04-15T21:13:24.783Z,13.65
2018-04-15T21:15:50.655Z,13.59
2018-04-15T21:18:16.551Z,13.57
2018-04-15T21:20:42.567Z,13.54
2018-04-15T21:23:08.419Z,13.53
2018-04-15T21:25:34.354Z,13.50
2018-04-15T21:28:00.293Z,13.50
2018-04-15T21:30:26.175Z,13.48
2018-04-15T21:32:52.145Z,13.45
2018-04-15T21:35:18.056Z,13.45
2018-04-15T21:37:43.995Z,13.41
2018-04-15T21:40:10.912Z,13.39
2018-04-15T21:42:36.837Z,13.38
2018-04-15T21:45:02.818Z,13.40
2018-04-15T21:47:28.707Z,13.39
2018-04-15T21:49:54.661Z,13.37
2018-04-15T21:52:20.556Z,13.38
2018-04-15T21:54:46.415Z,13.39
2018-04-15T21:57:12.439Z,13.38
2018-04-15T21:59:38.368Z,13.39
2018-04-15T22:02:04.320Z,13.40
2018-04-15T22:04:30.261Z,13.40
2018-04-15T22:06:56.124Z,13.41
2018-04-15T22:09:22.081Z,13.35
2018-04-15T22:12:00.371Z,13.32
2018-04-15T22:14:26.320Z,13.31
2018-04-15T22:16:52.210Z,13.25
2018-04-15T22:19:18.128Z,13.30
2018-04-15T22:21:44.100Z,13.27
2018-04-15T22:24:09.994Z,13.31
2018-04-15T22:26:35.994Z,13.31
2018-04-15T22:29:01.873Z,13.30
2018-04-15T22:31:27.815Z,13.27
2018-04-15T22:33:53.832Z,13.28
2018-04-15T22:36:19.726Z,13.28
2018-04-15T22:38:45.673Z,13.29
2018-04-15T22:41:11.602Z,13.29
2018-04-15T22:43:37.476Z,13.26
2018-04-15T22:46:03.453Z,13.25
2018-04-15T22:48:35.484Z,13.24
2018-04-15T22:51:01.410Z,13.28
2018-04-15T22:53:27.313Z,13.31
2018-04-15T22:55:54.327Z,13.37
2018-04-15T22:58:21.097Z,13.34
2018-04-15T23:00:46.963Z,13.38
2018-04-15T23:03:12.956Z,13.40
2018-04-15T23:05:38.836Z,13.57
2018-04-15T23:08:04.705Z,13.72
2018-04-15T23:10:30.712Z,13.60
2018-04-15T23:12:56.606Z,13.61
2018-04-15T23:15:22.568Z,13.64
2018-04-15T23:17:48.484Z,13.72
2018-04-15T23:20:14.363Z,13.78
2018-04-15T23:22:40.321Z,13.77
2018-04-15T23:25:06.623Z,13.69
2018-04-15T23:27:32.552Z,13.67
2018-04-15T23:29:58.445Z,13.63
2018-04-15T23:32:24.363Z,13.56
2018-04-15T23:34:50.299Z,13.51
2018-04-15T23:37:16.196Z,13.45
2018-04-15T23:39:42.175Z,13.41
2018-04-15T23:42:08.043Z,13.36
2018-04-15T23:44:33.934Z,13.30
2018-04-15T23:47:00.097Z,13.20
2018-04-15T23:49:26.016Z,13.08
2018-04-15T23:51:51.935Z,13.16
2018-04-15T23:54:17.859Z,13.11
2018-04-15T23:56:49.921Z,13.11
2018-04-15T23:59:15.859Z,13.30
